sensor_id;sensor_type;location;lat;lon;timestamp;temperature;humidity
3528;DHT22;1778;47.966;7.854;2022-11-15T00:00:13;11.10;99.90
3528;DHT22;1778;47.966;7.854;2022-11-15T00:01:33;11.10;99.90
3528;DHT22;1778;47.966;7.854;2022-11-15T00:02:53;11.10;99.90
3528;DHT22;1778;47.966;7.854;2022-11-15T00:04:13;11.10;99.90
3528;DHT22;1778;47.966;7.854;2022-11-15T00:05:36;11.10;99.90
3528;DHT22;1778;47.966;7.854;2022-11-15T00:06:56;11.10;99.90
3528;DHT22;1778;47.966;7.854;2022-11-15T00:08:17;11.10;99.90
3528;DHT22;1778;47.966;7.854;2022-11-15T00:09:37;11.10;99.90
3528;DHT22;1778;47.966;7.854;2022-11-15T00:11:04;11.10;99.90
3528;DHT22;1778;47.966;7.854;2022-11-15T00:12:24;11.10;99.90
3528;DHT22;1778;47.966;7.854;2022-11-15T00:13:44;11.10;99.90
3528;DHT22;1778;47.966;7.854;2022-11-15T00:15:05;11.10;99.90
3528;DHT22;1778;47.966;7.854;2022-11-15T00:16:25;11.10;99.90
3528;DHT22;1778;47.966;7.854;2022-11-15T00:17:48;11.10;99.90
3528;DHT22;1778;47.966;7.854;2022-11-15T00:19:09;11.20;99.90
3528;DHT22;1778;47.966;7.854;2022-11-15T00:20:29;11.20;99.90
3528;DHT22;1778;47.966;7.854;2022-11-15T00:21:50;11.20;99.90
3528;DHT22;1778;47.966;7.854;2022-11-15T00:23:10;11.20;99.90
3528;DHT22;1778;47.966;7.854;2022-11-15T00:24:30;11.10;99.90
3528;DHT22;1778;47.966;7.854;2022-11-15T00:25:56;11.20;99.90
3528;DHT22;1778;47.966;7.854;2022-11-15T00:27:17;11.10;99.90
3528;DHT22;1778;47.966;7.854;2022-11-15T00:28:37;11.10;99.90
3528;DHT22;1778;47.966;7.854;2022-11-15T00:29:56;11.10;99.90
3528;DHT22;1778;47.966;7.854;2022-11-15T00:31:16;11.10;99.90
3528;DHT22;1778;47.966;7.854;2022-11-15T00:32:36;11.10;99.90
3528;DHT22;1778;47.966;7.854;2022-11-15T00:33:56;11.10;99.90
3528;DHT22;1778;47.966;7.854;2022-11-15T00:35:16;11.10;99.90
3528;DHT22;1778;47.966;7.854;2022-11-15T00:36:36;11.10;99.90
3528;DHT22;1778;47.966;7.854;2022-11-15T00:37:57;11.20;99.90
3528;DHT22;1778;47.966;7.854;2022-11-15T00:39:17;11.10;99.90
3528;DHT22;1778;47.966;7.854;2022-11-15T00:40:36;11.10;99.90
3528;DHT22;1778;47.966;7.854;2022-11-15T00:41:57;11.10;99.90
3528;DHT22;1778;47.966;7.854;2022-11-15T00:43:17;11.10;99.90
3528;DHT22;1778;47.966;7.854;2022-11-15T00:44:37;11.10;99.90
3528;DHT22;1778;47.966;7.854;2022-11-15T00:45:58;11.10;99.90
3528;DHT22;1778;47.966;7.854;2022-11-15T00:47:18;11.10;99.90
3528;DHT22;1778;47.966;7.854;2022-11-15T00:48:38;11.10;99.90
3528;DHT22;1778;47.966;7.854;2022-11-15T00:49:58;11.00;99.90
3528;DHT22;1778;47.966;7.854;2022-11-15T00:51:18;11.10;99.90
3528;DHT22;1778;47.966;7.854;2022-11-15T00:52:38;11.10;99.90
3528;DHT22;1778;47.966;7.854;2022-11-15T00:53:58;11.10;99.90
3528;DHT22;1778;47.966;7.854;2022-11-15T00:55:18;11.10;99.90
3528;DHT22;1778;47.966;7.854;2022-11-15T00:56:39;11.10;99.90
3528;DHT22;1778;47.966;7.854;2022-11-15T00:57:59;11.20;99.90
3528;DHT22;1778;47.966;7.854;2022-11-15T00:59:18;11.10;99.90
3528;DHT22;1778;47.966;7.854;2022-11-15T01:00:38;11.10;99.90
3528;DHT22;1778;47.966;7.854;2022-11-15T01:01:58;11.10;99.90
3528;DHT22;1778;47.966;7.854;2022-11-15T01:03:18;11.10;99.90
3528;DHT22;1778;47.966;7.854;2022-11-15T01:04:38;11.10;99.90
3528;DHT22;1778;47.966;7.854;2022-11-15T01:06:00;11.30;99.90
3528;DHT22;1778;47.966;7.854;2022-11-15T01:07:20;11.20;99.90
3528;DHT22;1778;47.966;7.854;2022-11-15T01:08:41;11.30;99.90
3528;DHT22;1778;47.966;7.854;2022-11-15T01:10:01;11.40;99.90
3528;DHT22;1778;47.966;7.854;2022-11-15T01:11:21;11.30;99.90
3528;DHT22;1778;47.966;7.854;2022-11-15T01:12:41;11.30;99.90
3528;DHT22;1778;47.966;7.854;2022-11-15T01:14:01;11.30;99.90
3528;DHT22;1778;47.966;7.854;2022-11-15T01:15:21;11.40;99.90
3528;DHT22;1778;47.966;7.854;2022-11-15T01:16:41;11.40;99.90
3528;DHT22;1778;47.966;7.854;2022-11-15T01:18:02;11.50;99.90
3528;DHT22;1778;47.966;7.854;2022-11-15T01:19:22;11.50;99.90
3528;DHT22;1778;47.966;7.854;2022-11-15T01:20:42;11.50;99.90
3528;DHT22;1778;47.966;7.854;2022-11-15T01:22:01;11.60;99.90
3528;DHT22;1778;47.966;7.854;2022-11-15T01:23:21;11.50;99.90
3528;DHT22;1778;47.966;7.854;2022-11-15T01:24:42;11.50;99.90
3528;DHT22;1778;47.966;7.854;2022-11-15T01:26:05;11.50;99.90
3528;DHT22;1778;47.966;7.854;2022-11-15T01:27:25;11.50;99.90
3528;DHT22;1778;47.966;7.854;2022-11-15T01:28:45;11.60;99.90
3528;DHT22;1778;47.966;7.854;2022-11-15T01:30:05;11.60;99.90
3528;DHT22;1778;47.966;7.854;2022-11-15T01:31:26;11.60;99.90
3528;DHT22;1778;47.966;7.854;2022-11-15T01:32:46;11.60;99.90
3528;DHT22;1778;47.966;7.854;2022-11-15T01:34:05;11.60;99.90
3528;DHT22;1778;47.966;7.854;2022-11-15T01:35:26;11.60;99.90
3528;DHT22;1778;47.966;7.854;2022-11-15T01:36:47;11.60;99.90
3528;DHT22;1778;47.966;7.854;2022-11-15T01:38:07;11.60;99.90
3528;DHT22;1778;47.966;7.854;2022-11-15T01:39:27;11.70;99.90
3528;DHT22;1778;47.966;7.854;2022-11-15T01:40:48;11.70;99.90
3528;DHT22;1778;47.966;7.854;2022-11-15T01:42:12;11.70;99.90
3528;DHT22;1778;47.966;7.854;2022-11-15T01:43:35;11.70;99.90
3528;DHT22;1778;47.966;7.854;2022-11-15T01:44:56;11.70;99.90
3528;DHT22;1778;47.966;7.854;2022-11-15T01:46:33;11.70;99.90
3528;DHT22;1778;47.966;7.854;2022-11-15T01:47:54;11.80;99.90
3528;DHT22;1778;47.966;7.854;2022-11-15T01:49:19;11.70;99.90
3528;DHT22;1778;47.966;7.854;2022-11-15T01:50:40;11.70;99.90
3528;DHT22;1778;47.966;7.854;2022-11-15T01:52:02;11.60;99.90
3528;DHT22;1778;47.966;7.854;2022-11-15T01:53:24;11.70;99.90
3528;DHT22;1778;47.966;7.854;2022-11-15T01:54:46;11.70;99.90
3528;DHT22;1778;47.966;7.854;2022-11-15T01:56:10;11.60;99.90
3528;DHT22;1778;47.966;7.854;2022-11-15T01:57:31;11.60;99.90
3528;DHT22;1778;47.966;7.854;2022-11-15T01:58:52;11.60;99.90
3528;DHT22;1778;47.966;7.854;2022-11-15T02:00:15;11.60;99.90
3528;DHT22;1778;47.966;7.854;2022-11-15T02:01:35;11.70;99.90
3528;DHT22;1778;47.966;7.854;2022-11-15T02:02:55;11.70;99.90
3528;DHT22;1778;47.966;7.854;2022-11-15T02:04:20;11.70;99.90
3528;DHT22;1778;47.966;7.854;2022-11-15T02:05:43;11.70;99.90
3528;DHT22;1778;47.966;7.854;2022-11-15T02:07:05;11.70;99.90
3528;DHT22;1778;47.966;7.854;2022-11-15T02:08:28;11.70;99.90
3528;DHT22;1778;47.966;7.854;2022-11-15T02:09:49;11.70;99.90
3528;DHT22;1778;47.966;7.854;2022-11-15T02:11:10;11.70;99.90
3528;DHT22;1778;47.966;7.854;2022-11-15T02:12:31;11.70;99.90
3528;DHT22;1778;47.966;7.854;2022-11-15T02:13:51;11.70;99.90
3528;DHT22;1778;47.966;7.854;2022-11-15T02:15:11;11.80;99.90
3528;DHT22;1778;47.966;7.854;2022-11-15T02:16:59;11.80;99.90
3528;DHT22;1778;47.966;7.854;2022-11-15T02:18:28;11.90;99.90
3528;DHT22;1778;47.966;7.854;2022-11-15T02:32:20;12.30;99.90
3528;DHT22;1778;47.966;7.854;2022-11-15T02:34:06;12.30;99.90
3528;DHT22;1778;47.966;7.854;2022-11-15T02:35:29;12.30;99.90
3528;DHT22;1778;47.966;7.854;2022-11-15T02:37:22;12.30;99.90
3528;DHT22;1778;47.966;7.854;2022-11-15T02:39:03;12.40;99.90
3528;DHT22;1778;47.966;7.854;2022-11-15T02:41:57;12.40;99.90
3528;DHT22;1778;47.966;7.854;2022-11-15T02:43:24;12.40;99.90
3528;DHT22;1778;47.966;7.854;2022-11-15T02:45:07;12.40;99.90
3528;DHT22;1778;47.966;7.854;2022-11-15T02:47:01;12.40;99.90
3528;DHT22;1778;47.966;7.854;2022-11-15T02:48:34;12.40;99.90
3528;DHT22;1778;47.966;7.854;2022-11-15T02:49:59;12.40;99.90
3528;DHT22;1778;47.966;7.854;2022-11-15T02:51:20;12.40;99.90
3528;DHT22;1778;47.966;7.854;2022-11-15T02:52:45;12.40;99.90
3528;DHT22;1778;47.966;7.854;2022-11-15T02:54:06;12.40;99.90
3528;DHT22;1778;47.966;7.854;2022-11-15T02:55:27;12.30;99.90
3528;DHT22;1778;47.966;7.854;2022-11-15T02:56:49;12.30;99.90
3528;DHT22;1778;47.966;7.854;2022-11-15T03:00:15;12.20;99.90
3528;DHT22;1778;47.966;7.854;2022-11-15T03:03:52;12.30;99.90
3528;DHT22;1778;47.966;7.854;2022-11-15T03:05:48;12.20;99.90
3528;DHT22;1778;47.966;7.854;2022-11-15T03:07:33;12.20;99.90
3528;DHT22;1778;47.966;7.854;2022-11-15T03:12:07;12.10;99.90
3528;DHT22;1778;47.966;7.854;2022-11-15T03:15:17;12.20;99.90
3528;DHT22;1778;47.966;7.854;2022-11-15T03:16:45;12.20;99.90
3528;DHT22;1778;47.966;7.854;2022-11-15T03:18:19;12.20;99.90
3528;DHT22;1778;47.966;7.854;2022-11-15T03:19:46;12.20;99.90
3528;DHT22;1778;47.966;7.854;2022-11-15T03:21:08;12.10;99.90
3528;DHT22;1778;47.966;7.854;2022-11-15T03:22:30;12.10;99.90
3528;DHT22;1778;47.966;7.854;2022-11-15T03:23:54;12.10;99.90
3528;DHT22;1778;47.966;7.854;2022-11-15T03:25:20;12.10;99.90
3528;DHT22;1778;47.966;7.854;2022-11-15T03:26:44;12.10;99.90
3528;DHT22;1778;47.966;7.854;2022-11-15T03:28:05;12.10;99.90
3528;DHT22;1778;47.966;7.854;2022-11-15T03:29:31;12.10;99.90
3528;DHT22;1778;47.966;7.854;2022-11-15T03:30:53;12.10;99.90
3528;DHT22;1778;47.966;7.854;2022-11-15T03:32:19;12.10;99.90
3528;DHT22;1778;47.966;7.854;2022-11-15T03:33:39;12.10;99.90
3528;DHT22;1778;47.966;7.854;2022-11-15T03:35:09;12.10;99.90
3528;DHT22;1778;47.966;7.854;2022-11-15T03:36:32;12.10;99.90
3528;DHT22;1778;47.966;7.854;2022-11-15T03:39:39;12.10;99.90
3528;DHT22;1778;47.966;7.854;2022-11-15T03:41:15;12.10;99.90
3528;DHT22;1778;47.966;7.854;2022-11-15T03:43:24;12.10;99.90
3528;DHT22;1778;47.966;7.854;2022-11-15T03:46:11;12.10;99.90
3528;DHT22;1778;47.966;7.854;2022-11-15T03:47:39;12.10;99.90
3528;DHT22;1778;47.966;7.854;2022-11-15T03:49:07;12.10;99.90
3528;DHT22;1778;47.966;7.854;2022-11-15T03:50:28;12.10;99.90
3528;DHT22;1778;47.966;7.854;2022-11-15T03:51:49;12.10;99.90
3528;DHT22;1778;47.966;7.854;2022-11-15T03:53:09;12.10;99.90
3528;DHT22;1778;47.966;7.854;2022-11-15T03:54:30;12.10;99.90
3528;DHT22;1778;47.966;7.854;2022-11-15T03:55:50;12.10;99.90
3528;DHT22;1778;47.966;7.854;2022-11-15T03:57:11;12.00;99.90
3528;DHT22;1778;47.966;7.854;2022-11-15T03:58:31;12.00;99.90
3528;DHT22;1778;47.966;7.854;2022-11-15T03:59:51;12.00;99.90
3528;DHT22;1778;47.966;7.854;2022-11-15T04:01:11;12.00;99.90
3528;DHT22;1778;47.966;7.854;2022-11-15T04:02:31;12.00;99.90
3528;DHT22;1778;47.966;7.854;2022-11-15T04:03:52;12.00;99.90
3528;DHT22;1778;47.966;7.854;2022-11-15T04:05:12;12.00;99.90
3528;DHT22;1778;47.966;7.854;2022-11-15T04:06:32;12.00;99.90
3528;DHT22;1778;47.966;7.854;2022-11-15T04:07:53;12.00;99.90
3528;DHT22;1778;47.966;7.854;2022-11-15T04:09:13;12.00;99.90
3528;DHT22;1778;47.966;7.854;2022-11-15T04:10:34;12.00;99.90
3528;DHT22;1778;47.966;7.854;2022-11-15T04:11:53;12.00;99.90
3528;DHT22;1778;47.966;7.854;2022-11-15T04:13:13;12.00;99.90
3528;DHT22;1778;47.966;7.854;2022-11-15T04:14:34;12.00;99.90
3528;DHT22;1778;47.966;7.854;2022-11-15T04:15:53;12.10;99.90
3528;DHT22;1778;47.966;7.854;2022-11-15T04:17:14;12.10;99.90
3528;DHT22;1778;47.966;7.854;2022-11-15T04:18:35;12.00;99.90
3528;DHT22;1778;47.966;7.854;2022-11-15T04:19:55;12.00;99.90
3528;DHT22;1778;47.966;7.854;2022-11-15T04:21:34;11.90;99.90
3528;DHT22;1778;47.966;7.854;2022-11-15T04:23:20;12.00;99.90
3528;DHT22;1778;47.966;7.854;2022-11-15T04:24:59;11.90;99.90
3528;DHT22;1778;47.966;7.854;2022-11-15T04:26:21;11.90;99.90
3528;DHT22;1778;47.966;7.854;2022-11-15T04:27:41;11.90;99.90
3528;DHT22;1778;47.966;7.854;2022-11-15T04:29:02;11.90;99.90
3528;DHT22;1778;47.966;7.854;2022-11-15T04:30:40;11.90;99.90
3528;DHT22;1778;47.966;7.854;2022-11-15T04:32:05;11.90;99.90
3528;DHT22;1778;47.966;7.854;2022-11-15T04:33:25;11.80;99.90
3528;DHT22;1778;47.966;7.854;2022-11-15T04:34:45;11.80;99.90
3528;DHT22;1778;47.966;7.854;2022-11-15T04:36:05;11.70;99.90
3528;DHT22;1778;47.966;7.854;2022-11-15T04:37:45;11.60;99.90
3528;DHT22;1778;47.966;7.854;2022-11-15T04:39:08;11.60;99.90
3528;DHT22;1778;47.966;7.854;2022-11-15T04:40:28;11.60;99.90
3528;DHT22;1778;47.966;7.854;2022-11-15T04:41:48;11.50;99.90
3528;DHT22;1778;47.966;7.854;2022-11-15T04:43:08;11.50;99.90
3528;DHT22;1778;47.966;7.854;2022-11-15T04:44:28;11.40;99.90
3528;DHT22;1778;47.966;7.854;2022-11-15T04:45:48;11.40;99.90
3528;DHT22;1778;47.966;7.854;2022-11-15T04:47:08;11.40;99.90
3528;DHT22;1778;47.966;7.854;2022-11-15T04:48:28;11.40;99.90
3528;DHT22;1778;47.966;7.854;2022-11-15T04:49:49;11.30;99.90
3528;DHT22;1778;47.966;7.854;2022-11-15T04:51:09;11.30;99.90
3528;DHT22;1778;47.966;7.854;2022-11-15T04:52:29;11.30;99.90
3528;DHT22;1778;47.966;7.854;2022-11-15T04:53:49;11.30;99.90
3528;DHT22;1778;47.966;7.854;2022-11-15T04:55:12;11.30;99.90
3528;DHT22;1778;47.966;7.854;2022-11-15T04:56:33;11.30;99.90
3528;DHT22;1778;47.966;7.854;2022-11-15T04:58:00;11.30;99.90
3528;DHT22;1778;47.966;7.854;2022-11-15T04:59:21;11.30;99.90
3528;DHT22;1778;47.966;7.854;2022-11-15T05:00:40;11.30;99.90
3528;DHT22;1778;47.966;7.854;2022-11-15T05:02:00;11.30;99.90
3528;DHT22;1778;47.966;7.854;2022-11-15T05:03:21;11.30;99.90
3528;DHT22;1778;47.966;7.854;2022-11-15T05:05:00;11.30;99.90
3528;DHT22;1778;47.966;7.854;2022-11-15T05:06:20;11.30;99.90
3528;DHT22;1778;47.966;7.854;2022-11-15T05:07:40;11.30;99.90
3528;DHT22;1778;47.966;7.854;2022-11-15T05:09:01;11.30;99.90
3528;DHT22;1778;47.966;7.854;2022-11-15T05:10:22;11.30;99.90
3528;DHT22;1778;47.966;7.854;2022-11-15T05:11:42;11.20;99.90
3528;DHT22;1778;47.966;7.854;2022-11-15T05:13:02;11.20;99.90
3528;DHT22;1778;47.966;7.854;2022-11-15T05:14:22;11.20;99.90
3528;DHT22;1778;47.966;7.854;2022-11-15T05:15:41;11.20;99.90
3528;DHT22;1778;47.966;7.854;2022-11-15T05:17:02;11.20;99.90
3528;DHT22;1778;47.966;7.854;2022-11-15T05:18:22;11.20;99.90
3528;DHT22;1778;47.966;7.854;2022-11-15T05:19:42;11.10;99.90
3528;DHT22;1778;47.966;7.854;2022-11-15T05:21:07;11.10;99.90
3528;DHT22;1778;47.966;7.854;2022-11-15T05:22:28;11.10;99.90
3528;DHT22;1778;47.966;7.854;2022-11-15T05:23:48;11.20;99.90
3528;DHT22;1778;47.966;7.854;2022-11-15T05:25:08;11.10;99.90
3528;DHT22;1778;47.966;7.854;2022-11-15T05:26:28;11.30;99.90
3528;DHT22;1778;47.966;7.854;2022-11-15T05:27:48;11.30;99.90
3528;DHT22;1778;47.966;7.854;2022-11-15T05:29:09;11.20;99.90
3528;DHT22;1778;47.966;7.854;2022-11-15T05:30:30;11.20;99.90
3528;DHT22;1778;47.966;7.854;2022-11-15T05:31:50;11.10;99.90
3528;DHT22;1778;47.966;7.854;2022-11-15T05:33:10;11.20;99.90
3528;DHT22;1778;47.966;7.854;2022-11-15T05:34:31;11.10;99.90
3528;DHT22;1778;47.966;7.854;2022-11-15T05:35:55;11.10;99.90
3528;DHT22;1778;47.966;7.854;2022-11-15T05:37:17;11.10;99.90
3528;DHT22;1778;47.966;7.854;2022-11-15T05:38:38;11.10;99.90
3528;DHT22;1778;47.966;7.854;2022-11-15T05:39:59;11.00;99.90
3528;DHT22;1778;47.966;7.854;2022-11-15T05:41:21;11.00;99.90
3528;DHT22;1778;47.966;7.854;2022-11-15T05:42:42;11.00;99.90
3528;DHT22;1778;47.966;7.854;2022-11-15T05:44:05;10.90;99.90
3528;DHT22;1778;47.966;7.854;2022-11-15T05:45:27;11.00;99.90
3528;DHT22;1778;47.966;7.854;2022-11-15T05:46:48;11.00;99.90
3528;DHT22;1778;47.966;7.854;2022-11-15T05:48:12;11.00;99.90
3528;DHT22;1778;47.966;7.854;2022-11-15T05:49:35;10.90;99.90
3528;DHT22;1778;47.966;7.854;2022-11-15T05:50:56;10.90;99.90
3528;DHT22;1778;47.966;7.854;2022-11-15T05:52:20;10.80;99.90
3528;DHT22;1778;47.966;7.854;2022-11-15T05:53:41;10.80;99.90
3528;DHT22;1778;47.966;7.854;2022-11-15T05:55:01;10.80;99.90
3528;DHT22;1778;47.966;7.854;2022-11-15T05:56:22;10.80;99.90
3528;DHT22;1778;47.966;7.854;2022-11-15T05:57:43;10.80;99.90
3528;DHT22;1778;47.966;7.854;2022-11-15T05:59:03;10.80;99.90
3528;DHT22;1778;47.966;7.854;2022-11-15T06:00:24;10.80;99.90
3528;DHT22;1778;47.966;7.854;2022-11-15T06:01:44;10.80;99.90
3528;DHT22;1778;47.966;7.854;2022-11-15T06:03:04;10.70;99.90
3528;DHT22;1778;47.966;7.854;2022-11-15T06:04:24;10.70;99.90
3528;DHT22;1778;47.966;7.854;2022-11-15T06:05:44;10.70;99.90
3528;DHT22;1778;47.966;7.854;2022-11-15T06:07:04;10.60;99.90
3528;DHT22;1778;47.966;7.854;2022-11-15T06:08:24;10.60;99.90
3528;DHT22;1778;47.966;7.854;2022-11-15T06:09:44;10.60;99.90
3528;DHT22;1778;47.966;7.854;2022-11-15T06:11:07;10.60;99.90
3528;DHT22;1778;47.966;7.854;2022-11-15T06:12:27;10.70;99.90
3528;DHT22;1778;47.966;7.854;2022-11-15T06:13:47;10.60;99.90
3528;DHT22;1778;47.966;7.854;2022-11-15T06:15:07;10.60;99.90
3528;DHT22;1778;47.966;7.854;2022-11-15T06:16:28;10.60;99.90
3528;DHT22;1778;47.966;7.854;2022-11-15T06:17:48;10.60;99.90
3528;DHT22;1778;47.966;7.854;2022-11-15T06:19:08;10.60;99.90
3528;DHT22;1778;47.966;7.854;2022-11-15T06:20:29;10.50;99.90
3528;DHT22;1778;47.966;7.854;2022-11-15T06:21:49;10.50;99.90
3528;DHT22;1778;47.966;7.854;2022-11-15T06:23:09;10.50;99.90
3528;DHT22;1778;47.966;7.854;2022-11-15T06:24:29;10.50;99.90
3528;DHT22;1778;47.966;7.854;2022-11-15T06:25:49;10.50;99.90
3528;DHT22;1778;47.966;7.854;2022-11-15T06:27:10;10.50;99.90
3528;DHT22;1778;47.966;7.854;2022-11-15T06:28:31;10.50;99.90
3528;DHT22;1778;47.966;7.854;2022-11-15T06:29:51;10.50;99.90
3528;DHT22;1778;47.966;7.854;2022-11-15T06:31:11;10.50;99.90
3528;DHT22;1778;47.966;7.854;2022-11-15T06:32:32;10.40;99.90
3528;DHT22;1778;47.966;7.854;2022-11-15T06:33:52;10.50;99.90
3528;DHT22;1778;47.966;7.854;2022-11-15T06:35:13;10.50;99.90
3528;DHT22;1778;47.966;7.854;2022-11-15T06:36:36;10.50;99.90
3528;DHT22;1778;47.966;7.854;2022-11-15T06:38:05;10.50;99.90
3528;DHT22;1778;47.966;7.854;2022-11-15T06:39:25;10.50;99.90
3528;DHT22;1778;47.966;7.854;2022-11-15T06:40:45;10.50;99.90
3528;DHT22;1778;47.966;7.854;2022-11-15T06:42:05;10.50;99.90
3528;DHT22;1778;47.966;7.854;2022-11-15T06:43:25;10.40;99.90
3528;DHT22;1778;47.966;7.854;2022-11-15T06:44:45;10.40;99.90
3528;DHT22;1778;47.966;7.854;2022-11-15T06:46:06;10.50;99.90
3528;DHT22;1778;47.966;7.854;2022-11-15T06:47:26;10.50;99.90
3528;DHT22;1778;47.966;7.854;2022-11-15T06:48:46;10.50;99.90
3528;DHT22;1778;47.966;7.854;2022-11-15T06:50:06;10.50;99.90
3528;DHT22;1778;47.966;7.854;2022-11-15T06:51:26;10.50;99.90
3528;DHT22;1778;47.966;7.854;2022-11-15T06:52:46;10.50;99.90
3528;DHT22;1778;47.966;7.854;2022-11-15T06:54:06;10.50;99.90
3528;DHT22;1778;47.966;7.854;2022-11-15T06:55:26;10.50;99.90
3528;DHT22;1778;47.966;7.854;2022-11-15T06:56:46;10.60;99.90
3528;DHT22;1778;47.966;7.854;2022-11-15T06:58:06;10.50;99.90
3528;DHT22;1778;47.966;7.854;2022-11-15T06:59:26;10.50;99.90
3528;DHT22;1778;47.966;7.854;2022-11-15T07:00:46;10.50;99.90
3528;DHT22;1778;47.966;7.854;2022-11-15T07:02:12;10.50;99.90
3528;DHT22;1778;47.966;7.854;2022-11-15T07:03:41;10.50;99.90
3528;DHT22;1778;47.966;7.854;2022-11-15T07:05:01;10.50;99.90
3528;DHT22;1778;47.966;7.854;2022-11-15T07:06:21;10.50;99.90
3528;DHT22;1778;47.966;7.854;2022-11-15T07:07:42;10.50;99.90
3528;DHT22;1778;47.966;7.854;2022-11-15T07:09:03;10.60;99.90
3528;DHT22;1778;47.966;7.854;2022-11-15T07:10:24;10.70;99.90
3528;DHT22;1778;47.966;7.854;2022-11-15T07:11:45;10.60;99.90
3528;DHT22;1778;47.966;7.854;2022-11-15T07:13:05;10.70;99.90
3528;DHT22;1778;47.966;7.854;2022-11-15T07:14:25;10.70;99.90
3528;DHT22;1778;47.966;7.854;2022-11-15T07:15:45;10.70;99.90
3528;DHT22;1778;47.966;7.854;2022-11-15T07:17:05;10.70;99.90
3528;DHT22;1778;47.966;7.854;2022-11-15T07:18:25;10.70;99.90
3528;DHT22;1778;47.966;7.854;2022-11-15T07:19:47;10.70;99.90
3528;DHT22;1778;47.966;7.854;2022-11-15T07:21:08;10.80;99.90
3528;DHT22;1778;47.966;7.854;2022-11-15T07:22:29;10.70;99.90
3528;DHT22;1778;47.966;7.854;2022-11-15T07:23:49;10.70;99.90
3528;DHT22;1778;47.966;7.854;2022-11-15T07:25:09;10.80;99.90
3528;DHT22;1778;47.966;7.854;2022-11-15T07:26:30;10.80;99.90
3528;DHT22;1778;47.966;7.854;2022-11-15T07:27:59;10.90;99.90
3528;DHT22;1778;47.966;7.854;2022-11-15T07:29:20;10.80;99.90
3528;DHT22;1778;47.966;7.854;2022-11-15T07:30:40;10.80;99.90
3528;DHT22;1778;47.966;7.854;2022-11-15T07:32:04;10.90;99.90
3528;DHT22;1778;47.966;7.854;2022-11-15T07:33:24;10.90;99.90
3528;DHT22;1778;47.966;7.854;2022-11-15T07:34:44;10.90;99.90
3528;DHT22;1778;47.966;7.854;2022-11-15T07:36:06;10.90;99.90
3528;DHT22;1778;47.966;7.854;2022-11-15T07:37:26;10.90;99.90
3528;DHT22;1778;47.966;7.854;2022-11-15T07:38:46;11.00;99.90
3528;DHT22;1778;47.966;7.854;2022-11-15T07:40:07;11.00;99.90
3528;DHT22;1778;47.966;7.854;2022-11-15T07:41:28;11.00;99.90
3528;DHT22;1778;47.966;7.854;2022-11-15T07:42:49;11.00;99.90
3528;DHT22;1778;47.966;7.854;2022-11-15T07:44:16;11.10;99.90
3528;DHT22;1778;47.966;7.854;2022-11-15T07:45:41;11.10;99.90
3528;DHT22;1778;47.966;7.854;2022-11-15T07:47:01;11.10;99.90
3528;DHT22;1778;47.966;7.854;2022-11-15T07:48:21;11.10;99.90
3528;DHT22;1778;47.966;7.854;2022-11-15T07:49:41;11.10;99.90
3528;DHT22;1778;47.966;7.854;2022-11-15T07:51:02;11.10;99.90
3528;DHT22;1778;47.966;7.854;2022-11-15T07:52:22;11.20;99.90
3528;DHT22;1778;47.966;7.854;2022-11-15T07:53:42;11.20;99.90
3528;DHT22;1778;47.966;7.854;2022-11-15T07:55:03;11.20;99.90
3528;DHT22;1778;47.966;7.854;2022-11-15T07:56:23;11.20;99.90
3528;DHT22;1778;47.966;7.854;2022-11-15T07:57:43;11.20;99.90
3528;DHT22;1778;47.966;7.854;2022-11-15T07:59:03;11.30;99.90
3528;DHT22;1778;47.966;7.854;2022-11-15T08:00:23;11.30;99.90
3528;DHT22;1778;47.966;7.854;2022-11-15T08:01:43;11.40;99.90
3528;DHT22;1778;47.966;7.854;2022-11-15T08:03:05;11.40;99.90
3528;DHT22;1778;47.966;7.854;2022-11-15T08:04:26;11.40;99.90
3528;DHT22;1778;47.966;7.854;2022-11-15T08:05:50;11.50;99.90
3528;DHT22;1778;47.966;7.854;2022-11-15T08:07:10;11.60;99.90
3528;DHT22;1778;47.966;7.854;2022-11-15T08:08:31;11.70;99.90
3528;DHT22;1778;47.966;7.854;2022-11-15T08:09:50;11.70;99.90
3528;DHT22;1778;47.966;7.854;2022-11-15T08:11:10;11.70;99.90
3528;DHT22;1778;47.966;7.854;2022-11-15T08:12:30;11.80;99.90
3528;DHT22;1778;47.966;7.854;2022-11-15T08:13:50;11.80;99.90
3528;DHT22;1778;47.966;7.854;2022-11-15T08:15:11;11.90;99.90
3528;DHT22;1778;47.966;7.854;2022-11-15T08:16:31;11.90;99.90
3528;DHT22;1778;47.966;7.854;2022-11-15T08:17:59;11.90;99.90
3528;DHT22;1778;47.966;7.854;2022-11-15T08:19:19;11.90;99.90
3528;DHT22;1778;47.966;7.854;2022-11-15T08:20:40;12.00;99.90
3528;DHT22;1778;47.966;7.854;2022-11-15T08:22:01;12.00;99.90
3528;DHT22;1778;47.966;7.854;2022-11-15T08:23:21;12.10;99.90
3528;DHT22;1778;47.966;7.854;2022-11-15T08:24:41;12.10;99.90
3528;DHT22;1778;47.966;7.854;2022-11-15T08:26:03;12.10;99.90
3528;DHT22;1778;47.966;7.854;2022-11-15T08:27:23;12.20;99.90
3528;DHT22;1778;47.966;7.854;2022-11-15T08:28:43;12.20;99.90
3528;DHT22;1778;47.966;7.854;2022-11-15T08:30:04;12.20;99.90
3528;DHT22;1778;47.966;7.854;2022-11-15T08:31:24;12.30;99.90
3528;DHT22;1778;47.966;7.854;2022-11-15T08:32:45;12.30;99.90
3528;DHT22;1778;47.966;7.854;2022-11-15T08:34:06;12.30;99.90
3528;DHT22;1778;47.966;7.854;2022-11-15T08:35:26;12.30;99.90
3528;DHT22;1778;47.966;7.854;2022-11-15T08:36:48;12.30;99.90
3528;DHT22;1778;47.966;7.854;2022-11-15T08:38:08;12.40;99.90
3528;DHT22;1778;47.966;7.854;2022-11-15T08:39:28;12.40;99.90
3528;DHT22;1778;47.966;7.854;2022-11-15T08:40:48;12.40;99.90
3528;DHT22;1778;47.966;7.854;2022-11-15T08:42:09;12.50;99.90
3528;DHT22;1778;47.966;7.854;2022-11-15T08:43:36;12.50;99.90
3528;DHT22;1778;47.966;7.854;2022-11-15T08:44:56;12.50;99.90
3528;DHT22;1778;47.966;7.854;2022-11-15T08:46:16;12.50;99.90
3528;DHT22;1778;47.966;7.854;2022-11-15T08:47:37;12.50;99.90
3528;DHT22;1778;47.966;7.854;2022-11-15T08:48:58;12.50;99.90
3528;DHT22;1778;47.966;7.854;2022-11-15T08:50:18;12.50;99.90
3528;DHT22;1778;47.966;7.854;2022-11-15T08:51:38;12.60;99.90
3528;DHT22;1778;47.966;7.854;2022-11-15T08:53:05;12.60;99.90
3528;DHT22;1778;47.966;7.854;2022-11-15T08:54:25;12.60;99.90
3528;DHT22;1778;47.966;7.854;2022-11-15T08:55:45;12.60;99.90
3528;DHT22;1778;47.966;7.854;2022-11-15T08:57:05;12.70;99.90
3528;DHT22;1778;47.966;7.854;2022-11-15T08:58:25;12.70;99.90
3528;DHT22;1778;47.966;7.854;2022-11-15T08:59:45;12.70;99.90
3528;DHT22;1778;47.966;7.854;2022-11-15T09:01:06;12.80;99.90
3528;DHT22;1778;47.966;7.854;2022-11-15T09:02:26;12.80;99.90
3528;DHT22;1778;47.966;7.854;2022-11-15T09:03:46;12.80;99.90
3528;DHT22;1778;47.966;7.854;2022-11-15T09:05:07;12.80;99.90
3528;DHT22;1778;47.966;7.854;2022-11-15T09:06:27;12.90;99.90
3528;DHT22;1778;47.966;7.854;2022-11-15T09:07:47;12.90;99.90
3528;DHT22;1778;47.966;7.854;2022-11-15T09:09:07;13.00;99.90
3528;DHT22;1778;47.966;7.854;2022-11-15T09:10:28;13.00;99.90
3528;DHT22;1778;47.966;7.854;2022-11-15T09:11:49;13.00;99.90
3528;DHT22;1778;47.966;7.854;2022-11-15T09:13:10;13.10;99.90
3528;DHT22;1778;47.966;7.854;2022-11-15T09:14:30;13.10;99.90
3528;DHT22;1778;47.966;7.854;2022-11-15T09:15:51;13.10;99.90
3528;DHT22;1778;47.966;7.854;2022-11-15T09:17:10;13.10;99.90
3528;DHT22;1778;47.966;7.854;2022-11-15T09:18:31;13.00;99.90
3528;DHT22;1778;47.966;7.854;2022-11-15T09:19:52;12.90;99.90
3528;DHT22;1778;47.966;7.854;2022-11-15T09:21:12;12.80;99.90
3528;DHT22;1778;47.966;7.854;2022-11-15T09:22:32;12.70;99.90